ID-0147 weather

Synopi Airstrip
Synopi, West Papua, Indonesia

Public forecast

Using degrees Celsius for public forecast. Weather courtesy of forecast.io.

Closest aviation weather report (METAR) to Synopi Airstrip

Closest report is Frans Kaisiepo Airport, 192.2 nm (355.9 km) E. Retrieved 2020/01/26 04:00 UTC (49 minutes ago):

WABB 260400Z 24013KT 9999 FEW018 30/26 Q1008 NOSIG

Closest aviation forecast (TAF) to Synopi Airstrip

Closest forecast is Rendani Airport, 67.5 nm (125.0 km) E. Retrieved UTC (0 seconds ago):